Time;durP1;ratioP1;P1;durP2;ratioP2;P2;SDS_P1;SDS_P2;PMS_P1;PMS_P2;Temp;Humidity;BMP_temperature;BMP_pressure;BME280_temperature;BME280_humidity;BME280_pressure;Samples;Min_cycle;Max_cycle;Signal;HPM_P1;HPM_P2
2022/07/09 00:01:02;;;;;;;7.33;4.70;;;;;;;18.24;78.08;101465.22;5121072;28;20679;-70
2022/07/09 00:03:29;;;;;;;8.40;5.13;;;;;;;18.22;78.44;101459.09;5122240;28;20478;-69
2022/07/09 00:05:55;;;;;;;7.40;4.67;;;;;;;18.17;78.66;101461.44;5121970;28;20892;-70
2022/07/09 00:08:22;;;;;;;9.67;4.70;;;;;;;18.11;78.67;101456.69;5123638;27;21091;-69
2022/07/09 00:10:49;;;;;;;5.20;4.70;;;;;;;18.02;79.42;101453.09;5123196;27;20466;-66
2022/07/09 00:13:17;;;;;;;6.13;4.77;;;;;;;17.99;79.28;101456.13;5122327;28;20950;-66
2022/07/09 00:15:43;;;;;;;11.03;5.40;;;;;;;17.94;79.54;101455.75;5120901;28;20501;-66
2022/07/09 00:18:10;;;;;;;9.20;5.70;;;;;;;17.86;79.91;101445.69;5127226;27;20516;-67
2022/07/09 00:20:37;;;;;;;6.73;5.23;;;;;;;17.84;80.51;101444.97;5121917;27;20466;-67
2022/07/09 00:23:03;;;;;;;7.10;5.03;;;;;;;17.73;80.56;101442.56;5122357;28;20466;-67
2022/07/09 00:25:30;;;;;;;7.07;5.30;;;;;;;17.72;80.49;101447.09;5121673;28;20569;-67
2022/07/09 00:27:57;;;;;;;7.40;5.10;;;;;;;17.69;80.61;101442.03;5121490;28;20473;-68
2022/07/09 00:30:25;;;;;;;8.80;5.87;;;;;;;17.65;80.93;101448.75;5121942;28;20461;-68
2022/07/09 00:32:51;;;;;;;5.90;5.30;;;;;;;17.63;81.35;101445.34;5121821;28;20438;-68
2022/07/09 00:35:18;;;;;;;6.00;5.20;;;;;;;17.59;81.24;101446.69;5121307;28;20493;-68
2022/07/09 00:37:45;;;;;;;7.60;5.27;;;;;;;17.54;81.45;101439.03;5121033;28;20503;-68
2022/07/09 00:40:12;;;;;;;6.67;5.00;;;;;;;17.51;81.26;101431.22;5125549;27;20484;-67
2022/07/09 00:42:39;;;;;;;9.90;5.27;;;;;;;17.47;81.87;101421.75;5121670;28;20959;-68
2022/07/09 00:45:06;;;;;;;6.30;5.00;;;;;;;17.41;82.46;101427.75;5121504;28;20857;-66
2022/07/09 00:47:35;;;;;;;7.77;5.23;;;;;;;17.37;82.62;101437.19;5119996;28;20541;-69
2022/07/09 00:50:01;;;;;;;4.97;4.57;;;;;;;17.32;82.53;101426.84;5120968;28;20454;-68
2022/07/09 00:52:29;;;;;;;5.67;4.93;;;;;;;17.30;82.56;101431.56;5121162;28;20508;-69
2022/07/09 00:54:56;;;;;;;6.50;4.37;;;;;;;17.24;82.71;101433.03;5121380;27;21793;-69
2022/07/09 00:57:23;;;;;;;6.70;4.90;;;;;;;17.22;82.81;101428.78;5120558;28;20481;-69
2022/07/09 00:59:49;;;;;;;7.17;4.47;;;;;;;17.17;82.79;101431.09;5121465;28;20583;-67
2022/07/09 01:02:16;;;;;;;7.60;5.60;;;;;;;17.13;82.78;101427.84;5120290;28;20538;-68
2022/07/09 01:04:44;;;;;;;5.03;4.47;;;;;;;17.10;82.47;101429.03;5120273;28;20481;-69
2022/07/09 01:07:11;;;;;;;8.57;5.20;;;;;;;17.07;82.72;101425.78;5120366;28;20481;-68
2022/07/09 01:09:38;;;;;;;10.70;6.60;;;;;;;17.01;82.57;101426.41;5120652;28;20450;-68
2022/07/09 01:12:06;;;;;;;5.80;5.20;;;;;;;16.96;82.45;101429.56;5120707;28;21008;-66
2022/07/09 01:14:33;;;;;;;9.53;5.37;;;;;;;16.90;82.87;101425.63;5120528;28;20478;-66
2022/07/09 01:17:01;;;;;;;5.30;4.80;;;;;;;16.88;82.90;101426.78;5119972;28;20482;-67
2022/07/09 01:19:28;;;;;;;6.47;5.17;;;;;;;16.83;83.21;101426.34;5120107;28;20472;-66
2022/07/09 01:21:57;;;;;;;8.40;5.60;;;;;;;16.82;83.36;101422.81;5120273;28;20482;-69
2022/07/09 01:24:25;;;;;;;6.50;5.43;;;;;;;16.85;83.74;101417.13;5120447;28;20522;-67
2022/07/09 01:26:53;;;;;;;11.00;5.93;;;;;;;16.92;83.86;101411.97;5119885;28;20470;-69
2022/07/09 01:29:20;;;;;;;9.50;5.73;;;;;;;16.99;83.82;101412.19;5120302;28;21035;-69
2022/07/09 01:31:47;;;;;;;14.30;7.53;;;;;;;16.99;84.18;101410.34;5130973;27;20473;-67
2022/07/09 01:34:13;;;;;;;10.93;7.37;;;;;;;17.03;84.28;101413.56;5124431;27;20481;-68
2022/07/09 01:36:40;;;;;;;10.53;7.43;;;;;;;17.10;84.42;101415.53;5119620;28;20489;-68
2022/07/09 01:39:08;;;;;;;10.07;7.20;;;;;;;17.17;84.04;101412.19;5120675;28;20646;-69
2022/07/09 01:41:35;;;;;;;8.20;7.40;;;;;;;17.14;84.21;101410.66;5120095;28;20698;-66
2022/07/09 01:44:01;;;;;;;15.77;7.13;;;;;;;17.20;84.12;101407.31;5120519;28;20474;-68
2022/07/09 01:46:28;;;;;;;8.00;6.90;;;;;;;17.23;84.13;101404.31;5119365;28;20499;-67
2022/07/09 01:48:54;;;;;;;10.40;7.00;;;;;;;17.22;84.15;101394.53;5119366;28;20445;-69
2022/07/09 01:51:22;;;;;;;11.80;7.20;;;;;;;17.30;84.01;101397.25;5119915;28;20531;-69
2022/07/09 01:53:48;;;;;;;7.70;6.40;;;;;;;17.36;83.61;101386.84;5120330;28;20430;-69
2022/07/09 01:56:17;;;;;;;8.13;7.07;;;;;;;17.33;83.90;101392.56;5126291;28;20482;-69
2022/07/09 01:58:44;;;;;;;12.73;8.43;;;;;;;17.34;84.01;101381.59;5114427;28;20954;-68
2022/07/09 02:01:12;;;;;;;11.47;7.87;;;;;;;17.41;83.51;101384.50;5119865;28;20957;-68
2022/07/09 02:03:39;;;;;;;8.47;7.50;;;;;;;17.48;83.51;101385.56;5120199;28;20577;-68
2022/07/09 02:06:06;;;;;;;8.17;6.90;;;;;;;17.49;83.20;101385.41;5119728;28;20488;-67
2022/07/09 02:08:33;;;;;;;10.57;7.87;;;;;;;17.53;83.24;101375.13;5120193;28;21273;-67
2022/07/09 02:10:59;;;;;;;8.73;7.60;;;;;;;17.53;83.14;101372.44;5118440;28;20497;-69
2022/07/09 02:13:27;;;;;;;14.57;7.70;;;;;;;17.56;82.91;101376.69;5120537;28;20453;-69
2022/07/09 02:15:54;;;;;;;8.70;7.73;;;;;;;17.60;83.00;101372.66;5122113;28;20501;-69
2022/07/09 02:18:21;;;;;;;9.80;7.30;;;;;;;17.65;83.08;101376.59;5123675;28;20442;-69
2022/07/09 02:20:47;;;;;;;8.90;7.37;;;;;;;17.67;82.78;101357.47;5123145;28;20482;-65
2022/07/09 02:23:14;;;;;;;12.97;7.63;;;;;;;17.68;82.82;101364.59;5126657;27;20477;-68
2022/07/09 02:25:40;;;;;;;10.23;7.83;;;;;;;17.68;82.76;101364.59;5124178;27;20829;-68
2022/07/09 02:28:07;;;;;;;11.17;8.03;;;;;;;17.58;83.40;101370.09;5123847;28;20455;-69
2022/07/09 02:30:36;;;;;;;15.07;9.03;;;;;;;17.72;83.08;101376.78;5123494;28;20468;-69
2022/07/09 02:33:03;;;;;;;12.00;8.50;;;;;;;17.75;82.87;101362.09;5123817;28;20517;-68
2022/07/09 02:35:30;;;;;;;11.53;8.60;;;;;;;17.75;82.75;101360.22;5123261;28;20474;-66
2022/07/09 02:37:58;;;;;;;13.67;8.30;;;;;;;17.65;83.10;101354.09;5123771;28;20503;-69
2022/07/09 02:40:25;;;;;;;11.53;9.27;;;;;;;17.63;83.47;101361.50;5123400;27;20450;-68
2022/07/09 02:42:52;;;;;;;13.47;8.47;;;;;;;17.71;83.26;101350.75;5124060;28;20442;-68
2022/07/09 02:45:18;;;;;;;9.23;8.33;;;;;;;17.72;83.14;101354.28;5123530;28;20509;-68
2022/07/09 02:47:46;;;;;;;15.23;9.30;;;;;;;17.68;83.28;101362.72;5122631;28;20974;-70
2022/07/09 02:50:13;;;;;;;16.63;9.30;;;;;;;17.67;83.28;101355.63;5122954;28;20717;-69
2022/07/09 02:52:40;;;;;;;11.93;9.00;;;;;;;17.68;83.64;101362.72;5124015;28;20468;-69
2022/07/09 02:55:07;;;;;;;11.53;8.30;;;;;;;17.78;83.08;101364.50;5123319;27;20446;-66
2022/07/09 02:57:34;;;;;;;13.27;9.20;;;;;;;17.83;83.13;101362.16;5123914;28;20450;-69
2022/07/09 03:00:00;;;;;;;11.67;7.53;;;;;;;17.85;82.82;101360.13;5123656;28;20450;-70
2022/07/09 03:02:27;;;;;;;10.10;8.97;;;;;;;17.94;82.61;101369.16;5122953;28;20477;-70
2022/07/09 03:04:55;;;;;;;11.10;7.63;;;;;;;17.82;82.88;101371.25;5123094;28;20516;-69
2022/07/09 03:07:21;;;;;;;15.63;9.33;;;;;;;17.80;83.17;101365.16;5122954;28;20477;-70
2022/07/09 03:09:48;;;;;;;14.70;9.47;;;;;;;17.81;83.13;101364.13;5123490;27;20458;-69
2022/07/09 03:12:15;;;;;;;13.17;10.47;;;;;;;17.83;83.06;101356.75;5123273;28;20481;-69
2022/07/09 03:14:41;;;;;;;16.70;10.67;;;;;;;17.83;83.23;101362.16;5123177;28;20483;-69
2022/07/09 03:17:08;;;;;;;15.33;11.20;;;;;;;17.75;83.78;101365.63;5122343;28;20503;-69
2022/07/09 03:19:35;;;;;;;18.13;12.97;;;;;;;17.75;83.82;101362.09;5122244;28;20485;-66
2022/07/09 03:22:03;;;;;;;20.27;13.23;;;;;;;17.83;83.58;101364.84;5122616;28;20485;-66
2022/07/09 03:24:31;;;;;;;17.03;12.20;;;;;;;18.00;82.76;101368.50;5131299;27;20505;-68
2022/07/09 03:26:57;;;;;;;29.53;12.27;;;;;;;17.97;82.79;101363.44;5121111;28;20545;-68
2022/07/09 03:29:24;;;;;;;16.43;12.33;;;;;;;17.89;83.15;101358.81;5123447;28;20966;-68
2022/07/09 03:31:51;;;;;;;13.47;11.03;;;;;;;17.80;83.37;101365.16;5122665;28;20531;-66
2022/07/09 03:34:17;;;;;;;12.70;11.40;;;;;;;17.91;82.92;101364.91;5121940;28;20458;-67
2022/07/09 03:36:44;;;;;;;19.93;12.23;;;;;;;17.76;83.30;101367.34;5122052;28;20506;-68
2022/07/09 03:39:14;;;;;;;16.33;12.33;;;;;;;17.83;83.60;101362.16;5122691;27;20443;-68
2022/07/09 03:41:41;;;;;;;20.30;13.63;;;;;;;17.77;83.80;101354.66;5121995;28;20499;-68
2022/07/09 03:44:08;;;;;;;17.33;12.80;;;;;;;17.82;83.27;101361.28;5122029;28;20505;-66
2022/07/09 03:46:34;;;;;;;19.90;14.50;;;;;;;17.86;83.01;101354.59;5120946;28;20469;-67
2022/07/09 03:49:01;;;;;;;16.13;14.40;;;;;;;17.74;83.50;101350.44;5121659;28;20510;-68
2022/07/09 03:51:27;;;;;;;21.57;16.30;;;;;;;17.82;83.51;101346.91;5122364;27;20477;-67
2022/07/09 03:53:54;;;;;;;20.40;16.03;;;;;;;17.90;82.74;101340.72;5122836;28;20503;-67
2022/07/09 03:56:22;;;;;;;22.97;16.20;;;;;;;17.86;82.76;101346.47;5121695;28;20481;-66
2022/07/09 03:58:49;;;;;;;18.23;16.23;;;;;;;17.85;83.13;101333.06;5122489;28;20450;-66
2022/07/09 04:01:16;;;;;;;26.63;16.77;;;;;;;17.80;82.90;101335.41;5121497;28;20486;-67
2022/07/09 04:03:42;;;;;;;24.43;18.23;;;;;;;17.87;82.85;101333.78;5122232;28;20457;-68
2022/07/09 04:06:09;;;;;;;18.33;16.30;;;;;;;17.86;82.46;101341.06;5121380;27;20478;-67
2022/07/09 04:08:36;;;;;;;19.00;17.10;;;;;;;17.64;83.42;101336.19;5122535;28;20456;-68
2022/07/09 04:11:02;;;;;;;23.63;19.40;;;;;;;17.58;83.74;101332.22;5121148;28;20958;-67
2022/07/09 04:13:31;;;;;;;20.20;17.90;;;;;;;17.62;83.24;101328.22;5122320;28;20438;-68
2022/07/09 04:15:57;;;;;;;25.27;18.73;;;;;;;17.54;83.60;101328.16;5121207;28;20499;-68
2022/07/09 04:18:24;;;;;;;24.73;18.50;;;;;;;17.64;83.63;101330.78;5121457;28;20478;-67
2022/07/09 04:20:51;;;;;;;23.37;19.27;;;;;;;17.67;83.26;101328.59;5122155;27;20787;-68
2022/07/09 04:23:18;;;;;;;21.17;18.13;;;;;;;17.64;83.42;101331.59;5121776;28;20480;-67
2022/07/09 04:25:45;;;;;;;24.57;18.80;;;;;;;17.82;82.90;101334.22;5121350;28;20494;-68
2022/07/09 04:28:12;;;;;;;25.70;18.73;;;;;;;17.99;82.38;101328.94;5120943;28;20445;-68
2022/07/09 04:30:40;;;;;;;23.00;18.27;;;;;;;17.84;82.63;101332.19;5121015;28;20485;-66
2022/07/09 04:33:07;;;;;;;27.67;17.70;;;;;;;17.89;82.49;101334.47;5120854;28;20467;-67
2022/07/09 04:35:35;;;;;;;19.20;17.13;;;;;;;18.13;81.70;101324.75;5120998;28;20500;-67
2022/07/09 04:38:02;;;;;;;20.73;17.53;;;;;;;17.96;81.80;101330.09;5108917;28;20484;-66
2022/07/09 04:40:28;;;;;;;21.87;17.93;;;;;;;17.93;81.66;101335.81;5120783;28;20481;-66
2022/07/09 04:42:55;;;;;;;22.40;17.27;;;;;;;17.87;81.82;101333.78;5120758;28;20470;-67
2022/07/09 04:45:22;;;;;;;19.77;17.57;;;;;;;17.72;82.54;101330.78;5120376;28;20509;-67
2022/07/09 04:47:50;;;;;;;20.83;18.60;;;;;;;17.63;82.78;101338.00;5121065;28;20481;-67
2022/07/09 04:50:17;;;;;;;24.33;17.80;;;;;;;17.78;82.46;101340.13;5121745;27;20970;-67
2022/07/09 04:52:44;;;;;;;19.20;16.00;;;;;;;17.94;82.09;101342.94;5135114;27;20460;-67
2022/07/09 04:55:11;;;;;;;18.40;15.83;;;;;;;17.69;82.45;101345.50;5120666;28;20471;-67
2022/07/09 04:57:38;;;;;;;21.17;16.63;;;;;;;17.66;83.03;101339.56;5121279;28;20451;-67
2022/07/09 05:00:06;;;;;;;26.83;16.70;;;;;;;17.55;83.93;101340.69;5120994;28;20434;-65
2022/07/09 05:02:33;;;;;;;21.00;17.50;;;;;;;17.75;83.32;101349.41;5120843;28;21098;-68
2022/07/09 05:05:03;;;;;;;22.57;17.20;;;;;;;17.99;82.06;101345.19;5120567;28;20548;-66
2022/07/09 05:07:30;;;;;;;20.77;16.80;;;;;;;17.58;83.08;101334.94;5120883;27;20504;-66
2022/07/09 05:09:57;;;;;;;23.27;17.13;;;;;;;17.95;82.22;101338.38;5121468;28;20488;-66
2022/07/09 05:12:23;;;;;;;22.63;17.10;;;;;;;17.84;82.14;101332.19;5120612;28;20481;-65
2022/07/09 05:14:50;;;;;;;19.67;16.40;;;;;;;18.00;81.81;101338.72;5120165;28;20431;-67
2022/07/09 05:17:16;;;;;;;18.90;16.00;;;;;;;18.06;81.23;101344.34;5120033;28;20551;-66
2022/07/09 05:19:43;;;;;;;21.73;16.67;;;;;;;17.84;81.87;101336.78;5119997;28;20438;-66
2022/07/09 05:22:11;;;;;;;22.73;14.97;;;;;;;17.85;82.29;101350.16;5120535;27;20504;-67
2022/07/09 05:24:38;;;;;;;19.40;15.53;;;;;;;17.97;81.40;101342.63;5120283;28;20570;-67
2022/07/09 05:27:06;;;;;;;19.97;14.90;;;;;;;18.12;81.24;101348.25;5120013;28;20556;-69
2022/07/09 05:29:32;;;;;;;19.87;14.50;;;;;;;18.25;80.36;101347.81;5120108;28;20458;-66
2022/07/09 05:31:59;;;;;;;16.60;14.80;;;;;;;18.20;80.30;101334.75;5119469;28;20481;-66
2022/07/09 05:34:25;;;;;;;18.33;13.67;;;;;;;17.97;80.65;101350.75;5119728;28;20485;-66
2022/07/09 05:36:54;;;;;;;14.80;13.10;;;;;;;17.86;81.46;101351.00;5119381;28;20477;-67
2022/07/09 05:39:22;;;;;;;19.43;15.10;;;;;;;17.93;81.75;101356.63;5120597;28;20453;-67
2022/07/09 05:41:49;;;;;;;18.33;12.33;;;;;;;17.90;80.80;101347.00;5120255;28;20486;-66
2022/07/09 05:44:16;;;;;;;15.47;13.47;;;;;;;17.89;80.94;101345.28;5120180;28;20470;-66
2022/07/09 05:46:43;;;;;;;18.20;13.83;;;;;;;17.81;81.12;101346.06;5106388;27;20486;-64
2022/07/09 05:49:09;;;;;;;15.10;12.60;;;;;;;17.88;80.81;101339.03;5117125;28;20453;-67
2022/07/09 05:51:36;;;;;;;18.70;13.10;;;;;;;17.81;80.61;101342.50;5117400;28;20478;-66
2022/07/09 05:54:03;;;;;;;18.57;13.27;;;;;;;17.94;80.42;101336.69;5123331;27;20445;-65
2022/07/09 05:56:31;;;;;;;19.23;12.93;;;;;;;18.02;80.34;101332.16;5116214;28;20470;-67
2022/07/09 05:58:58;;;;;;;15.20;12.73;;;;;;;18.23;79.67;101336.31;5117821;28;20433;-66
2022/07/09 06:01:27;;;;;;;16.63;12.57;;;;;;;18.57;78.19;101341.63;5117210;28;21026;-67
2022/07/09 06:03:54;;;;;;;19.80;12.30;;;;;;;18.72;77.35;101341.81;5117183;28;20625;-66
2022/07/09 06:06:20;;;;;;;16.90;11.60;;;;;;;18.86;76.14;101345.75;5116296;28;20478;-65
2022/07/09 06:08:47;;;;;;;15.00;11.17;;;;;;;19.07;75.00;101347.97;5117022;28;20506;-67
2022/07/09 06:11:14;;;;;;;14.67;12.03;;;;;;;18.73;76.17;101348.94;5117031;28;20503;-64
2022/07/09 06:13:42;;;;;;;16.53;11.00;;;;;;;19.02;75.90;101344.06;5118157;28;20462;-66
2022/07/09 06:16:09;;;;;;;15.07;11.63;;;;;;;18.95;75.86;101346.59;5116159;28;20911;-66
2022/07/09 06:18:36;;;;;;;17.93;11.00;;;;;;;19.50;74.18;101335.03;5117528;28;20460;-67
2022/07/09 06:21:02;;;;;;;17.00;10.20;;;;;;;19.24;74.00;101350.69;5116923;28;20494;-66
2022/07/09 06:23:29;;;;;;;15.97;10.93;;;;;;;18.85;74.80;101345.91;5126068;28;20920;-65
2022/07/09 06:25:56;;;;;;;14.20;11.33;;;;;;;18.67;75.33;101338.75;5137614;28;20517;-65
2022/07/09 06:28:22;;;;;;;14.07;10.97;;;;;;;18.91;75.29;101334.44;5133801;28;20465;-65
2022/07/09 06:30:51;;;;;;;10.27;9.10;;;;;;;18.99;74.25;101337.97;5106898;28;20471;-65
2022/07/09 06:33:17;;;;;;;12.93;9.40;;;;;;;19.41;73.04;101332.50;5117044;28;20939;-66
2022/07/09 06:35:44;;;;;;;11.83;9.50;;;;;;;20.18;70.65;101343.66;5117497;28;20886;-65
2022/07/09 06:38:10;;;;;;;11.00;8.43;;;;;;;20.15;70.01;101344.00;5116217;28;20517;-65
2022/07/09 06:40:37;;;;;;;12.00;7.20;;;;;;;20.54;69.17;101342.28;5117025;28;20493;-67
2022/07/09 06:43:04;;;;;;;7.83;7.03;;;;;;;20.95;65.76;101347.44;5118166;28;20426;-66
2022/07/09 06:45:32;;;;;;;8.70;6.83;;;;;;;21.51;64.09;101345.28;5116590;28;20470;-66
2022/07/09 06:48:00;;;;;;;8.80;6.53;;;;;;;22.70;60.47;101338.84;5114268;28;20484;-67
2022/07/09 06:50:27;;;;;;;5.83;5.20;;;;;;;23.07;58.40;101345.09;5108935;28;20493;-68
2022/07/09 06:52:54;;;;;;;8.00;5.37;;;;;;;24.23;54.41;101344.59;5119573;28;20473;-66
2022/07/09 06:55:20;;;;;;;8.67;5.37;;;;;;;24.80;52.29;101335.09;5119536;28;20956;-67
2022/07/09 06:57:47;;;;;;;5.83;5.00;;;;;;;26.27;48.62;101334.88;5119665;28;20446;-68
2022/07/09 07:00:14;;;;;;;9.73;4.70;;;;;;;24.57;52.13;101331.91;5128434;28;20461;-68
2022/07/09 07:02:41;;;;;;;5.80;5.03;;;;;;;24.14;52.96;101338.47;5123594;28;20491;-68
2022/07/09 07:05:10;;;;;;;4.87;4.17;;;;;;;25.50;49.97;101329.22;5122077;28;20486;-68
2022/07/09 07:07:36;;;;;;;4.73;3.47;;;;;;;27.03;46.06;101335.09;5122858;28;20845;-68
2022/07/09 07:10:04;;;;;;;4.17;3.50;;;;;;;27.31;44.28;101333.78;5122404;27;20462;-69
2022/07/09 07:12:30;;;;;;;4.50;4.10;;;;;;;25.35;48.79;101336.81;5122719;27;20499;-68
2022/07/09 07:14:57;;;;;;;8.17;4.10;;;;;;;25.47;49.08;101329.66;5123503;28;20442;-69
2022/07/09 07:17:23;;;;;;;7.30;3.97;;;;;;;26.19;47.32;101329.66;5122060;28;20476;-68
2022/07/09 07:19:51;;;;;;;4.13;3.80;;;;;;;25.74;47.63;101340.53;5122400;28;20479;-69
2022/07/09 07:22:19;;;;;;;4.60;3.53;;;;;;;25.66;47.43;101327.09;5122414;28;20470;-68
2022/07/09 07:24:46;;;;;;;5.00;3.20;;;;;;;24.42;50.96;101338.34;5122506;27;20523;-69
2022/07/09 07:27:12;;;;;;;6.10;3.50;;;;;;;25.58;48.48;101328.16;5121174;27;20465;-67
2022/07/09 07:29:39;;;;;;;4.63;3.40;;;;;;;25.83;46.85;101327.44;5120932;28;20516;-68
2022/07/09 07:32:07;;;;;;;4.10;3.53;;;;;;;25.88;48.12;101328.50;5115606;27;20509;-69
2022/07/09 07:34:33;;;;;;;4.77;3.50;;;;;;;24.68;49.73;101320.34;5104762;28;20499;-68
2022/07/09 07:37:00;;;;;;;4.23;3.07;;;;;;;26.31;46.57;101316.09;5114508;28;20509;-69
2022/07/09 07:39:28;;;;;;;3.50;2.80;;;;;;;26.88;44.65;101318.09;5111685;28;20473;-65
2022/07/09 07:41:55;;;;;;;4.43;2.60;;;;;;;25.15;48.33;101320.38;5124879;27;20508;-67
2022/07/09 07:44:22;;;;;;;6.67;3.27;;;;;;;25.78;46.47;101313.56;5122591;28;20426;-69
2022/07/09 07:46:49;;;;;;;6.40;2.77;;;;;;;26.62;44.60;101304.34;5119890;28;20526;-68
2022/07/09 07:49:16;;;;;;;4.00;2.60;;;;;;;27.47;43.72;101303.00;5121617;28;20927;-69
2022/07/09 07:51:42;;;;;;;3.47;2.30;;;;;;;29.47;39.24;101300.13;5121414;28;20543;-68
2022/07/09 07:54:09;;;;;;;4.73;2.03;;;;;;;30.09;37.52;101297.91;5121173;28;20533;-67
2022/07/09 07:56:39;;;;;;;5.73;2.40;;;;;;;27.46;41.89;101311.47;5120715;28;20494;-70
2022/07/09 07:59:06;;;;;;;3.50;2.00;;;;;;;27.30;42.81;101313.72;5122052;28;20473;-70
2022/07/09 08:01:32;;;;;;;3.10;2.10;;;;;;;27.36;42.14;101295.50;5120582;28;20477;-70
2022/07/09 08:03:59;;;;;;;2.20;1.80;;;;;;;27.28;42.80;101304.06;5118594;28;20497;-69
2022/07/09 08:06:26;;;;;;;3.13;1.97;;;;;;;27.41;42.73;101301.16;5120528;28;20606;-70
2022/07/09 08:08:52;;;;;;;3.60;2.20;;;;;;;27.16;43.11;101303.91;5119483;28;20467;-70
2022/07/09 08:11:19;;;;;;;4.97;2.70;;;;;;;26.26;45.82;101293.97;5119451;27;20560;-69
2022/07/09 08:13:47;;;;;;;2.80;2.27;;;;;;;27.91;42.10;101303.78;5121031;28;20430;-71
2022/07/09 08:16:14;;;;;;;7.13;2.17;;;;;;;27.55;42.72;101296.38;5119850;27;20523;-70
2022/07/09 08:18:40;;;;;;;7.50;2.00;;;;;;;26.59;44.12;101302.00;5140121;27;20442;-70
2022/07/09 08:21:07;;;;;;;2.40;2.20;;;;;;;25.08;47.46;101300.38;5141464;27;20561;-69
2022/07/09 08:23:51;;;;;;;3.60;2.97;;;;;;;24.89;48.20;101291.13;5123130;27;20522;-70
2022/07/09 08:26:18;;;;;;;4.70;2.43;;;;;;;25.21;47.61;101286.69;5105091;28;20477;-70
2022/07/09 08:28:46;;;;;;;2.97;2.63;;;;;;;24.37;49.67;101293.53;5119666;28;20445;-70
2022/07/09 08:31:19;;;;;;;7.00;2.83;;;;;;;24.49;50.24;101296.53;5119616;28;20576;-71
2022/07/09 08:33:45;;;;;;;3.90;2.30;;;;;;;23.84;51.83;101295.03;5128636;27;20506;-70
2022/07/09 08:36:12;;;;;;;4.50;3.13;;;;;;;22.49;55.03;101291.44;5141032;27;20496;-70
2022/07/09 08:38:39;;;;;;;4.87;3.50;;;;;;;22.44;55.74;101296.63;5140418;27;20481;-71
2022/07/09 08:41:06;;;;;;;3.93;3.13;;;;;;;22.59;56.03;101279.41;5140502;27;20497;-70
2022/07/09 08:43:34;;;;;;;3.83;2.97;;;;;;;22.41;56.05;101288.88;5135380;27;20426;-70
2022/07/09 08:46:02;;;;;;;5.27;2.83;;;;;;;22.55;56.15;101282.50;5117285;27;20490;-70
2022/07/09 08:48:29;;;;;;;2.77;2.30;;;;;;;21.96;57.67;101283.50;5120476;28;20612;-68
2022/07/09 08:50:56;;;;;;;4.60;2.70;;;;;;;21.84;58.01;101276.88;5119767;28;20492;-70
2022/07/09 08:53:27;;;;;;;3.63;2.50;;;;;;;22.15;57.23;101276.59;5119257;28;20538;-70
2022/07/09 08:55:54;;;;;;;3.43;2.60;;;;;;;22.33;56.33;101275.38;5118748;28;20466;-70
2022/07/09 08:58:21;;;;;;;5.30;2.57;;;;;;;22.31;56.60;101272.84;5120096;28;20667;-67
2022/07/09 09:00:49;;;;;;;3.73;2.70;;;;;;;22.04;57.12;101274.38;5118855;27;20513;-69
2022/07/09 09:03:17;;;;;;;3.47;2.50;;;;;;;22.19;56.72;101277.91;5120529;28;20426;-69
2022/07/09 09:05:44;;;;;;;4.63;2.70;;;;;;;22.47;56.07;101277.19;5119488;28;20474;-69
2022/07/09 09:08:21;;;;;;;6.30;2.67;;;;;;;22.09;56.73;101271.09;5119271;27;20474;-69
2022/07/09 09:10:48;;;;;;;2.17;1.70;;;;;;;22.30;56.53;101273.03;5119232;28;20473;-66
2022/07/09 09:13:16;;;;;;;6.00;2.40;;;;;;;22.51;55.90;101269.47;5120313;28;20860;-71
2022/07/09 09:15:43;;;;;;;4.00;2.53;;;;;;;21.84;57.91;101267.81;5117713;28;20513;-67
2022/07/09 09:18:10;;;;;;;4.03;2.10;;;;;;;21.86;57.75;101271.22;5118894;27;20450;-69
2022/07/09 09:20:39;;;;;;;4.10;2.37;;;;;;;21.62;58.00;101265.06;5118386;28;20740;-71
2022/07/09 09:23:10;;;;;;;5.67;2.83;;;;;;;21.92;57.73;101270.44;5119753;28;20467;-69
2022/07/09 09:25:38;;;;;;;3.77;1.73;;;;;;;22.37;56.65;101269.31;5119658;28;20470;-72
2022/07/09 09:28:05;;;;;;;6.10;1.80;;;;;;;22.09;55.96;101269.19;5119084;28;20494;-71
2022/07/09 09:30:32;;;;;;;2.57;2.07;;;;;;;22.97;54.37;101269.03;5117871;28;20457;-69
2022/07/09 09:32:59;;;;;;;3.63;1.90;;;;;;;23.01;53.94;101275.78;5119977;28;20473;-77
2022/07/09 09:35:27;;;;;;;3.33;1.77;;;;;;;22.86;54.77;101273.16;5118869;28;21259;-74
2022/07/09 09:37:55;;;;;;;3.40;1.67;;;;;;;22.82;54.72;101276.47;5118475;28;20621;-69
2022/07/09 09:40:23;;;;;;;3.20;1.67;;;;;;;23.38;53.29;101271.03;5117794;28;20446;-69
2022/07/09 09:42:50;;;;;;;3.40;1.90;;;;;;;23.24;54.81;101263.81;5119613;28;20907;-70
2022/07/09 09:45:17;;;;;;;5.83;1.97;;;;;;;23.31;53.69;101265.53;5117562;28;20778;-67
2022/07/09 09:47:47;;;;;;;2.00;1.80;;;;;;;23.26;54.62;101269.91;5118824;28;20442;-69
2022/07/09 09:50:18;;;;;;;4.17;2.47;;;;;;;23.36;54.68;101280.47;5117040;28;20533;-69
2022/07/09 09:52:46;;;;;;;2.90;1.93;;;;;;;23.63;53.51;101273.28;5119044;28;20499;-69
2022/07/09 09:55:15;;;;;;;5.50;2.17;;;;;;;24.26;51.31;101270.41;5118576;28;20474;-67
2022/07/09 09:57:42;;;;;;;3.90;2.80;;;;;;;24.43;51.01;101274.44;5119259;28;20485;-69
2022/07/09 10:00:10;;;;;;;2.70;1.90;;;;;;;24.68;50.87;101276.59;5117596;28;20474;-69
2022/07/09 10:02:39;;;;;;;3.87;2.10;;;;;;;24.13;50.73;101268.47;5119172;28;21118;-68
2022/07/09 10:05:07;;;;;;;4.60;2.20;;;;;;;24.77;50.89;101261.69;5118840;28;20570;-65
2022/07/09 10:07:33;;;;;;;3.73;1.80;;;;;;;24.79;49.56;101253.28;5118856;28;20481;-68
2022/07/09 10:10:00;;;;;;;2.90;2.07;;;;;;;24.78;50.33;101260.63;5118422;28;20486;-68
2022/07/09 10:12:29;;;;;;;4.00;1.83;;;;;;;25.66;48.15;101261.38;5118716;28;20481;-67
2022/07/09 10:14:56;;;;;;;2.60;2.10;;;;;;;25.77;47.62;101266.16;5111719;28;20442;-67
2022/07/09 10:17:25;;;;;;;2.67;2.27;;;;;;;24.69;49.59;101258.31;5117756;28;20474;-68
2022/07/09 10:19:54;;;;;;;2.70;1.70;;;;;;;24.96;50.00;101256.41;5118631;28;20474;-67
2022/07/09 10:22:20;;;;;;;4.93;2.40;;;;;;;25.98;46.55;101245.03;5118218;28;20918;-68
2022/07/09 10:24:48;;;;;;;1.60;1.50;;;;;;;26.91;44.66;101262.75;5136283;28;20489;-67
2022/07/09 10:27:16;;;;;;;2.40;1.73;;;;;;;28.85;41.32;101261.19;5115648;28;20497;-68
2022/07/09 10:29:55;;;;;;;3.90;1.90;;;;;;;28.87;39.01;101248.91;5116490;28;21017;-67
2022/07/09 10:32:25;;;;;;;1.53;1.00;;;;;;;27.53;41.14;101254.56;5117811;28;20542;-68
2022/07/09 10:34:56;;;;;;;2.00;1.50;;;;;;;29.48;36.92;101245.91;5118152;28;20504;-68
2022/07/09 10:37:36;;;;;;;2.57;1.30;;;;;;;29.05;38.14;101247.09;5122539;28;20501;-67
2022/07/09 10:40:11;;;;;;;1.80;1.60;;;;;;;28.91;38.38;101247.31;5139311;27;20960;-68
2022/07/09 10:42:38;;;;;;;2.93;1.90;;;;;;;28.12;39.32;101239.25;5143126;27;20531;-68
2022/07/09 10:45:25;;;;;;;3.40;1.80;;;;;;;27.30;41.84;101231.34;5143700;27;20451;-67
2022/07/09 10:47:54;;;;;;;1.97;1.50;;;;;;;26.95;42.76;101231.06;5143402;27;20518;-67
2022/07/09 10:50:21;;;;;;;3.80;2.10;;;;;;;25.79;43.39;101224.84;5142257;27;20487;-67
2022/07/09 10:52:48;;;;;;;1.63;1.30;;;;;;;24.47;47.08;101224.81;5139851;27;20468;-68
2022/07/09 10:55:17;;;;;;;2.47;1.63;;;;;;;24.99;46.16;101215.78;5130556;27;20441;-68
2022/07/09 10:57:44;;;;;;;1.97;1.50;;;;;;;26.81;43.51;101211.13;5143279;27;20508;-67
2022/07/09 11:00:16;;;;;;;3.63;1.40;;;;;;;28.21;39.95;101217.78;5142876;27;20474;-68
2022/07/09 11:02:53;;;;;;;2.97;1.40;;;;;;;27.18;42.10;101213.94;5134952;27;20447;-68
2022/07/09 11:05:20;;;;;;;2.53;1.17;;;;;;;28.71;39.33;101209.16;5141656;27;20441;-68
2022/07/09 11:07:55;;;;;;;1.87;1.30;;;;;;;27.32;39.14;101217.41;5143850;27;20437;-66
2022/07/09 11:10:22;;;;;;;2.40;1.60;;;;;;;26.95;40.77;101206.38;5142653;27;20448;-68
2022/07/09 11:12:49;;;;;;;4.87;1.30;;;;;;;27.56;40.11;101210.97;5125454;27;20574;-68
2022/07/09 11:15:19;;;;;;;7.70;1.73;;;;;;;27.03;40.13;101204.16;5122178;28;20441;-70
2022/07/09 11:17:55;;;;;;;2.00;1.30;;;;;;;26.57;41.56;101208.13;5122622;28;20437;-67
2022/07/09 11:20:21;;;;;;;3.53;1.50;;;;;;;25.98;42.32;101209.41;5121211;28;20484;-68